createdAt,value
2018-04-14T00:01:53.382Z,100064.88
2018-04-14T00:04:20.783Z,100064.25
2018-04-14T00:06:48.171Z,100073.46
2018-04-14T00:09:15.558Z,100076.14
2018-04-14T00:11:42.962Z,100080.31
2018-04-14T00:14:10.347Z,100080.36
2018-04-14T00:16:37.731Z,100079.36
2018-04-14T00:19:05.118Z,100085.34
2018-04-14T00:21:32.506Z,100082.30
2018-04-14T00:23:59.975Z,100080.89
2018-04-14T00:26:27.371Z,100086.08
2018-04-14T00:28:54.759Z,100089.16
2018-04-14T00:31:22.147Z,100091.71
2018-04-14T00:33:49.684Z,100090.25
2018-04-14T00:36:17.070Z,100091.42
2018-04-14T00:38:44.467Z,100090.99
2018-04-14T00:41:11.859Z,100102.47
2018-04-14T00:43:39.246Z,100093.25
2018-04-14T00:46:06.637Z,100091.53
2018-04-14T00:48:34.020Z,100096.17
2018-04-14T00:51:01.423Z,100091.03
2018-04-14T00:53:40.631Z,100092.95
2018-04-14T00:56:08.026Z,100092.07
2018-04-14T00:58:35.414Z,100093.84
2018-04-14T01:01:02.805Z,100098.10
2018-04-14T01:03:30.195Z,100099.19
2018-04-14T01:05:57.582Z,100097.77
2018-04-14T01:08:24.989Z,100101.23
2018-04-14T01:10:52.380Z,100099.39
2018-04-14T01:13:19.763Z,100102.61
2018-04-14T01:15:47.159Z,100099.10
2018-04-14T01:18:14.550Z,100096.97
2018-04-14T01:20:41.943Z,100094.29
2018-04-14T01:23:09.326Z,100098.16
2018-04-14T01:25:36.715Z,100100.55
2018-04-14T01:28:04.109Z,100103.08
2018-04-14T01:30:31.504Z,100103.16
2018-04-14T01:32:58.900Z,100105.95
2018-04-14T01:35:26.275Z,100107.11
2018-04-14T01:37:53.667Z,100105.09
2018-04-14T01:40:21.062Z,100111.09
2018-04-14T01:42:48.453Z,100105.19
2018-04-14T01:45:15.847Z,100110.77
2018-04-14T01:47:43.234Z,100110.14
2018-04-14T01:50:10.678Z,100110.92
2018-04-14T01:52:38.058Z,100106.53
2018-04-14T01:55:05.447Z,100105.91
2018-04-14T01:57:32.833Z,100111.16
2018-04-14T02:00:00.219Z,100110.90
2018-04-14T02:02:27.616Z,100100.82
2018-04-14T02:04:55.007Z,100106.72
2018-04-14T02:07:22.403Z,100110.05
2018-04-14T02:09:49.791Z,100108.86
2018-04-14T02:12:17.174Z,100100.46
2018-04-14T02:14:44.568Z,100108.17
2018-04-14T02:17:11.947Z,100106.01
2018-04-14T02:19:39.339Z,100105.42
2018-04-14T02:22:06.722Z,100108.83
2018-04-14T02:24:34.119Z,100109.22
2018-04-14T02:27:01.508Z,100105.30
2018-04-14T02:29:28.890Z,100113.05
2018-04-14T02:31:56.282Z,100115.86
2018-04-14T02:34:23.668Z,100109.93
2018-04-14T02:36:51.059Z,100105.81
2018-04-14T02:39:18.451Z,100106.66
2018-04-14T02:41:45.850Z,100111.41
2018-04-14T02:44:13.230Z,100112.23
2018-04-14T02:46:40.623Z,100114.31
2018-04-14T02:49:08.015Z,100117.30
2018-04-14T02:51:35.403Z,100114.66
2018-04-14T02:54:02.799Z,100110.19
2018-04-14T02:56:30.183Z,100121.58
2018-04-14T02:58:57.619Z,100130.50
2018-04-14T03:01:25.009Z,100134.83
2018-04-14T03:03:52.391Z,100131.91
2018-04-14T03:06:19.783Z,100132.00
2018-04-14T03:08:47.167Z,100128.25
2018-04-14T03:11:14.595Z,100129.56
2018-04-14T03:13:41.975Z,100131.08
2018-04-14T03:16:09.367Z,100127.33
2018-04-14T03:18:36.762Z,100128.66
2018-04-14T03:21:04.150Z,100135.85
2018-04-14T03:23:31.538Z,100135.69
2018-04-14T03:25:58.931Z,100139.95
2018-04-14T03:28:26.635Z,100141.84
2018-04-14T03:30:54.019Z,100139.19
2018-04-14T03:33:21.402Z,100138.68
2018-04-14T03:35:48.799Z,100137.47
2018-04-14T03:38:16.187Z,100141.58
2018-04-14T03:40:43.580Z,100140.45
2018-04-14T03:43:10.963Z,100150.14
2018-04-14T03:45:38.380Z,100149.23
2018-04-14T03:48:05.738Z,100149.86
2018-04-14T03:50:33.131Z,100156.66
2018-04-14T03:53:00.515Z,100155.85
2018-04-14T03:55:27.907Z,100160.87
2018-04-14T03:57:55.291Z,100171.78
2018-04-14T04:00:22.678Z,100167.20
2018-04-14T04:02:50.071Z,100172.02
2018-04-14T04:05:17.453Z,100169.19
2018-04-14T04:07:44.847Z,100173.07
2018-04-14T04:10:12.382Z,100175.13
2018-04-14T04:12:39.772Z,100179.25
2018-04-14T04:15:07.159Z,100185.18
2018-04-14T04:17:34.543Z,100188.46
2018-04-14T04:20:13.746Z,100196.82
2018-04-14T04:22:52.915Z,100194.48
2018-04-14T04:25:29.959Z,100202.28
2018-04-14T04:27:57.364Z,100205.05
2018-04-14T04:30:25.223Z,100212.65
2018-04-14T04:32:52.609Z,100213.56
2018-04-14T04:35:20.011Z,100210.16
2018-04-14T04:37:47.398Z,100213.19
2018-04-14T04:40:14.795Z,100218.64
2018-04-14T04:42:42.182Z,100216.80
2018-04-14T04:45:09.570Z,100218.45
2018-04-14T04:47:36.975Z,100218.50
2018-04-14T04:50:04.363Z,100218.12
2018-04-14T04:52:31.751Z,100223.22
2018-04-14T04:54:59.171Z,100225.92
2018-04-14T04:57:26.552Z,100223.58
2018-04-14T04:59:53.947Z,100230.47
2018-04-14T05:02:21.330Z,100239.38
2018-04-14T05:04:48.735Z,100239.56
2018-04-14T05:07:16.119Z,100247.16
2018-04-14T05:09:43.510Z,100251.27
2018-04-14T05:12:10.903Z,100258.61
2018-04-14T05:14:38.295Z,100255.19
2018-04-14T05:17:05.691Z,100253.52
2018-04-14T05:19:33.071Z,100260.96
2018-04-14T05:22:00.806Z,100268.05
2018-04-14T05:24:28.191Z,100272.47
2018-04-14T05:26:55.583Z,100275.92
2018-04-14T05:29:22.970Z,100277.79
2018-04-14T05:31:50.359Z,100280.02
2018-04-14T05:34:17.751Z,100283.50
2018-04-14T05:36:45.154Z,100281.44
2018-04-14T05:39:12.548Z,100287.38
2018-04-14T05:41:39.930Z,100284.84
2018-04-14T05:44:07.315Z,100293.15
2018-04-14T05:46:34.703Z,100298.81
2018-04-14T05:49:02.092Z,100289.33
2018-04-14T05:51:29.483Z,100295.42
2018-04-14T05:53:56.867Z,100297.54
2018-04-14T05:56:24.472Z,100294.98
2018-04-14T05:58:52.170Z,100290.48
2018-04-14T06:01:19.554Z,100297.89
2018-04-14T06:03:46.942Z,100296.83
2018-04-14T06:06:14.326Z,100295.76
2018-04-14T06:08:41.718Z,100308.94
2018-04-14T06:11:09.111Z,100301.02
2018-04-14T06:13:36.510Z,100303.81
2018-04-14T06:16:03.898Z,100313.00
2018-04-14T06:18:31.291Z,100316.14
2018-04-14T06:20:58.725Z,100327.30
2018-04-14T06:23:26.115Z,100331.95
2018-04-14T06:25:53.512Z,100327.96
2018-04-14T06:28:21.156Z,100332.58
2018-04-14T06:30:48.979Z,100331.77
2018-04-14T06:33:16.366Z,100333.83
2018-04-14T06:35:43.755Z,100333.77
2018-04-14T06:38:11.148Z,100335.61
2018-04-14T06:40:38.535Z,100339.03
2018-04-14T06:43:05.932Z,100334.94
2018-04-14T06:45:33.319Z,100343.53
2018-04-14T06:48:00.719Z,100346.97
2018-04-14T06:50:28.121Z,100348.95
2018-04-14T06:52:55.516Z,100352.75
2018-04-14T06:55:22.906Z,100358.42
2018-04-14T06:57:50.295Z,100359.73
2018-04-14T07:00:17.690Z,100360.13
2018-04-14T07:02:45.084Z,100373.85
2018-04-14T07:05:12.479Z,100368.66
2018-04-14T07:07:39.867Z,100372.81
2018-04-14T07:10:07.262Z,100374.70
2018-04-14T07:12:34.650Z,100377.25
2018-04-14T07:15:02.044Z,100376.56
2018-04-14T07:17:29.487Z,100381.72
2018-04-14T07:19:56.823Z,100382.87
2018-04-14T07:22:24.230Z,100387.69
2018-04-14T07:24:51.619Z,100384.84
2018-04-14T07:27:19.079Z,100394.77
2018-04-14T07:29:46.496Z,100386.03
2018-04-14T07:32:13.951Z,100384.62
2018-04-14T07:34:41.330Z,100390.52
2018-04-14T07:37:08.715Z,100395.00
2018-04-14T07:39:36.427Z,100402.75
2018-04-14T07:42:03.848Z,100406.18
2018-04-14T07:44:31.237Z,100409.20
2018-04-14T07:46:58.631Z,100408.62
2018-04-14T07:49:26.012Z,100409.00
2018-04-14T07:51:53.403Z,100412.20
2018-04-14T07:54:20.794Z,100419.77
2018-04-14T07:56:48.199Z,100415.56
2018-04-14T07:59:15.599Z,100420.07
2018-04-14T08:01:43.075Z,100424.55
2018-04-14T08:04:10.468Z,100425.31
2018-04-14T08:06:37.862Z,100431.42
2018-04-14T08:09:05.975Z,100424.36
2018-04-14T08:11:33.404Z,100419.00
2018-04-14T08:14:00.758Z,100429.11
2018-04-14T08:16:28.151Z,100428.02
2018-04-14T08:18:55.535Z,100436.08
2018-04-14T08:21:22.927Z,100429.49
2018-04-14T08:23:50.315Z,100432.61
2018-04-14T08:26:17.775Z,100431.98
2018-04-14T08:28:45.170Z,100433.15
2018-04-14T08:31:12.589Z,100438.96
2018-04-14T08:33:39.998Z,100445.16
2018-04-14T08:36:07.395Z,100447.91
2018-04-14T08:38:34.786Z,100448.66
2018-04-14T08:41:02.199Z,100455.27
2018-04-14T08:43:29.595Z,100461.70
2018-04-14T08:45:56.994Z,100460.77
2018-04-14T08:48:24.418Z,100460.13
2018-04-14T08:50:51.814Z,100455.99
2018-04-14T08:53:19.203Z,100454.37
2018-04-14T08:55:46.602Z,100456.44
2018-04-14T08:58:13.985Z,100454.31
2018-04-14T09:00:41.382Z,100459.98
2018-04-14T09:03:08.781Z,100454.72
2018-04-14T09:05:36.161Z,100458.37
2018-04-14T09:08:03.555Z,100463.66
2018-04-14T09:10:30.939Z,100463.02
2018-04-14T09:12:58.351Z,100462.91
2018-04-14T09:15:25.754Z,100469.88
2018-04-14T09:17:53.222Z,100468.77
2018-04-14T09:20:20.615Z,100469.39
2018-04-14T09:22:48.007Z,100472.44
2018-04-14T09:25:15.400Z,100476.30
2018-04-14T09:27:42.783Z,100460.22
2018-04-14T09:30:10.183Z,100470.53
2018-04-14T09:32:37.567Z,100468.72
2018-04-14T09:35:04.966Z,100464.43
2018-04-14T09:37:32.378Z,100469.09
2018-04-14T09:39:59.762Z,100469.30
2018-04-14T09:42:27.160Z,100471.75
2018-04-14T09:44:54.555Z,100470.56
2018-04-14T09:47:21.951Z,100467.86
2018-04-14T09:49:49.341Z,100471.70
2018-04-14T09:52:16.727Z,100479.04
2018-04-14T09:54:44.123Z,100475.33
2018-04-14T09:57:11.519Z,100466.08
2018-04-14T09:59:38.903Z,100471.96
2018-04-14T10:02:06.295Z,100474.59
2018-04-14T10:04:33.695Z,100471.86
2018-04-14T10:07:01.079Z,100471.48
2018-04-14T10:09:28.470Z,100464.56
2018-04-14T10:11:55.866Z,100469.24
2018-04-14T10:14:23.261Z,100463.94
2018-04-14T10:16:50.663Z,100464.02
2018-04-14T10:19:18.047Z,100460.48
2018-04-14T10:21:45.449Z,100464.67
2018-04-14T10:24:12.830Z,100459.02
2018-04-14T10:26:40.224Z,100461.14
2018-04-14T10:29:07.713Z,100456.88
2018-04-14T10:31:35.091Z,100457.53
2018-04-14T10:34:02.487Z,100456.09
2018-04-14T10:36:29.870Z,100451.38
2018-04-14T10:38:57.266Z,100458.39
2018-04-14T10:41:24.674Z,100451.89
2018-04-14T10:43:52.112Z,100453.06
2018-04-14T10:46:19.451Z,100452.18
2018-04-14T10:48:46.846Z,100449.41
2018-04-14T10:51:14.246Z,100439.79
2018-04-14T10:53:41.632Z,100450.41
2018-04-14T10:56:09.024Z,100452.78
2018-04-14T10:58:36.418Z,100444.22
2018-04-14T11:01:03.799Z,100455.65
2018-04-14T11:03:31.199Z,100448.51
2018-04-14T11:05:58.590Z,100455.73
2018-04-14T11:08:25.978Z,100450.06
2018-04-14T11:10:53.367Z,100447.27
2018-04-14T11:13:20.848Z,100453.77
2018-04-14T11:15:48.239Z,100455.01
2018-04-14T11:18:15.635Z,100450.98
2018-04-14T11:20:43.031Z,100454.88
2018-04-14T11:23:10.419Z,100460.06
2018-04-14T11:25:37.832Z,100452.65
2018-04-14T11:28:05.254Z,100448.77
2018-04-14T11:30:33.046Z,100448.04
2018-04-14T11:33:00.436Z,100444.09
2018-04-14T11:35:27.819Z,100450.09
2018-04-14T11:37:55.215Z,100450.36
2018-04-14T11:40:22.610Z,100443.52
2018-04-14T11:42:49.998Z,100447.63
2018-04-14T11:45:17.390Z,100447.97
2018-04-14T11:47:44.783Z,100446.06
2018-04-14T11:50:12.170Z,100448.53
2018-04-14T11:52:39.563Z,100447.19
2018-04-14T11:55:06.959Z,100447.40
2018-04-14T11:57:34.372Z,100449.19
2018-04-14T12:00:01.739Z,100448.55
2018-04-14T12:02:29.126Z,100448.03
2018-04-14T12:04:56.511Z,100461.77
2018-04-14T12:07:23.903Z,100474.09
2018-04-14T12:09:51.325Z,100463.19
2018-04-14T12:12:20.355Z,100456.60
2018-04-14T12:14:47.787Z,100461.06
2018-04-14T12:17:15.131Z,100455.88
2018-04-14T12:19:42.528Z,100458.16
2018-04-14T12:22:09.915Z,100455.30
2018-04-14T12:24:37.306Z,100454.59
2018-04-14T12:27:04.696Z,100455.63
2018-04-14T12:29:32.092Z,100456.58
2018-04-14T12:31:59.487Z,100457.41
2018-04-14T12:34:26.876Z,100455.20
2018-04-14T12:36:54.595Z,100460.81
2018-04-14T12:39:21.991Z,100449.76
2018-04-14T12:41:49.380Z,100447.20
2018-04-14T12:44:16.774Z,100447.47
2018-04-14T12:46:44.159Z,100442.85
2018-04-14T12:49:11.815Z,100453.17
2018-04-14T12:51:39.203Z,100448.34
2018-04-14T12:54:06.603Z,100448.25
2018-04-14T12:56:33.995Z,100452.12
2018-04-14T12:59:01.383Z,100448.80
2018-04-14T13:01:28.780Z,100444.13
2018-04-14T13:03:56.166Z,100443.19
2018-04-14T13:06:23.555Z,100449.86
2018-04-14T13:08:50.956Z,100445.83
2018-04-14T13:11:18.342Z,100443.66
2018-04-14T13:13:45.734Z,100442.02
2018-04-14T13:16:13.126Z,100437.67
2018-04-14T13:18:40.523Z,100437.68
2018-04-14T13:21:07.923Z,100435.12
2018-04-14T13:23:35.305Z,100437.80
2018-04-14T13:26:02.722Z,100435.20
2018-04-14T13:28:30.104Z,100436.07
2018-04-14T13:30:57.499Z,100434.92
2018-04-14T13:33:24.887Z,100431.69
2018-04-14T13:35:52.275Z,100435.54
2018-04-14T13:38:19.667Z,100429.38
2018-04-14T13:40:47.055Z,100423.11
2018-04-14T13:43:14.500Z,100420.28
2018-04-14T13:45:41.874Z,100421.88
2018-04-14T13:48:09.279Z,100413.46
2018-04-14T13:50:36.663Z,100411.83
2018-04-14T13:55:54.900Z,100418.89
2018-04-14T13:58:22.290Z,100422.86
2018-04-14T14:00:49.680Z,100410.57
2018-04-14T14:03:17.079Z,100417.89
2018-04-14T14:05:44.463Z,100403.36
2018-04-14T14:08:11.854Z,100402.44
2018-04-14T14:10:39.247Z,100398.87
2018-04-14T14:13:06.631Z,100397.53
2018-04-14T14:15:34.171Z,100391.30
2018-04-14T14:18:01.568Z,100395.76
2018-04-14T14:20:28.963Z,100391.44
2018-04-14T14:22:56.355Z,100388.53
2018-04-14T14:25:23.761Z,100386.94
2018-04-14T14:27:51.147Z,100383.53
2018-04-14T14:30:18.535Z,100376.98
2018-04-14T14:32:45.926Z,100369.53
2018-04-14T14:35:13.411Z,100368.89
2018-04-14T14:37:40.806Z,100359.28
2018-04-14T14:40:08.198Z,100360.27
2018-04-14T14:42:35.611Z,100360.60
2018-04-14T14:45:03.026Z,100356.98
2018-04-14T14:47:36.076Z,100358.25
2018-04-14T14:50:09.152Z,100359.66
2018-04-14T14:52:37.522Z,100355.59
2018-04-14T14:55:04.919Z,100352.03
2018-04-14T14:57:32.302Z,100354.08
2018-04-14T14:59:59.703Z,100347.37
2018-04-14T15:02:27.095Z,100343.30
2018-04-14T15:04:54.496Z,100342.70
2018-04-14T15:07:21.884Z,100334.47
2018-04-14T15:09:49.262Z,100333.64
2018-04-14T15:12:16.669Z,100330.95
2018-04-14T15:14:44.039Z,100329.98
2018-04-14T15:17:11.431Z,100328.78
2018-04-14T15:19:38.856Z,100325.34
2018-04-14T15:22:06.245Z,100324.61
2018-04-14T15:24:33.632Z,100322.61
2018-04-14T15:27:01.024Z,100329.14
2018-04-14T15:29:28.416Z,100321.38
2018-04-14T15:31:55.811Z,100329.86
2018-04-14T15:34:23.195Z,100334.42
2018-04-14T15:36:50.591Z,100332.95
2018-04-14T15:39:17.979Z,100335.86
2018-04-14T15:41:45.382Z,100334.64
2018-04-14T15:44:12.783Z,100335.86
2018-04-14T15:46:40.172Z,100330.77
2018-04-14T15:49:07.558Z,100325.72
2018-04-14T15:51:34.946Z,100322.06
2018-04-14T15:54:02.340Z,100322.88
2018-04-14T15:56:29.745Z,100321.41
2018-04-14T15:58:57.122Z,100322.48
2018-04-14T16:01:24.511Z,100325.05
2018-04-14T16:03:51.960Z,100323.66
2018-04-14T16:06:19.309Z,100316.45
2018-04-14T16:08:46.713Z,100326.94
2018-04-14T16:11:14.118Z,100327.31
2018-04-14T16:13:41.663Z,100325.61
2018-04-14T16:16:09.052Z,100317.75
2018-04-14T16:18:37.065Z,100321.73
2018-04-14T16:21:04.451Z,100324.61
2018-04-14T16:23:31.877Z,100323.41
2018-04-14T16:25:59.251Z,100323.27
2018-04-14T16:28:26.647Z,100316.91
2018-04-14T16:30:54.040Z,100318.80
2018-04-14T16:33:21.427Z,100324.33
2018-04-14T16:35:48.823Z,100319.20
2018-04-14T16:38:16.217Z,100318.52
2018-04-14T16:40:43.611Z,100317.40
2018-04-14T16:43:10.996Z,100329.12
2018-04-14T16:45:38.383Z,100321.63
2018-04-14T16:48:05.791Z,100328.25
2018-04-14T16:50:33.167Z,100326.57
2018-04-14T16:53:00.555Z,100320.48
2018-04-14T16:55:27.955Z,100327.89
2018-04-14T16:57:55.368Z,100325.73
2018-04-14T17:00:22.764Z,100330.84
2018-04-14T17:02:50.154Z,100322.71
2018-04-14T17:05:17.558Z,100318.64
2018-04-14T17:07:44.971Z,100314.50
2018-04-14T17:10:12.380Z,100316.25
2018-04-14T17:12:39.763Z,100313.81
2018-04-14T17:15:07.163Z,100314.66
2018-04-14T17:17:34.555Z,100309.72
2018-04-14T17:20:01.947Z,100312.65
2018-04-14T17:22:29.335Z,100313.81
2018-04-14T17:24:56.727Z,100311.55
2018-04-14T17:27:24.107Z,100307.56
2018-04-14T17:29:51.509Z,100309.07
2018-04-14T17:32:18.891Z,100311.30
2018-04-14T17:34:46.295Z,100310.71
2018-04-14T17:37:13.683Z,100313.33
2018-04-14T17:39:41.071Z,100315.69
2018-04-14T17:42:08.486Z,100311.95
2018-04-14T17:44:35.878Z,100312.50
2018-04-14T17:47:03.274Z,100313.58
2018-04-14T17:49:30.671Z,100315.95
2018-04-14T17:51:58.063Z,100313.77
2018-04-14T17:54:25.451Z,100316.59
2018-04-14T17:56:53.760Z,100315.87
2018-04-14T17:59:21.147Z,100316.88
2018-04-14T18:01:48.558Z,100318.16
2018-04-14T18:04:15.948Z,100312.66
2018-04-14T18:06:43.326Z,100311.37
2018-04-14T18:09:10.723Z,100308.81
2018-04-14T18:11:38.138Z,100309.05
2018-04-14T18:14:05.524Z,100310.98
2018-04-14T18:16:32.910Z,100308.22
2018-04-14T18:19:00.308Z,100305.99
2018-04-14T18:21:27.694Z,100310.17
2018-04-14T18:23:55.111Z,100305.30
2018-04-14T18:26:22.494Z,100309.59
2018-04-14T18:28:49.883Z,100304.43
2018-04-14T18:31:17.278Z,100306.05
2018-04-14T18:33:44.667Z,100307.92
2018-04-14T18:36:12.064Z,100310.38
2018-04-14T18:38:39.455Z,100313.69
2018-04-14T18:41:06.847Z,100312.91
2018-04-14T18:43:34.237Z,100312.91
2018-04-14T18:46:01.647Z,100324.10
2018-04-14T18:48:29.039Z,100330.15
2018-04-14T18:50:56.883Z,100327.25
2018-04-14T18:53:24.347Z,100328.84
2018-04-14T18:55:51.735Z,100331.39
2018-04-14T18:58:19.135Z,100332.55
2018-04-14T19:00:46.532Z,100331.79
2018-04-14T19:03:13.931Z,100335.87
2018-04-14T19:05:41.319Z,100342.23
2018-04-14T19:08:08.711Z,100342.00
2018-04-14T19:10:36.107Z,100335.53
2018-04-14T19:13:03.506Z,100335.00
2018-04-14T19:15:30.908Z,100335.89
2018-04-14T19:17:58.330Z,100345.87
2018-04-14T19:20:25.681Z,100336.26
2018-04-14T19:22:53.071Z,100338.78
2018-04-14T19:25:20.533Z,100337.11
2018-04-14T19:27:47.912Z,100337.95
2018-04-14T19:30:15.303Z,100340.74
2018-04-14T19:32:42.715Z,100339.38
2018-04-14T19:35:10.112Z,100335.73
2018-04-14T19:37:37.553Z,100334.33
2018-04-14T19:40:04.907Z,100338.09
2018-04-14T19:42:33.294Z,100335.16
2018-04-14T19:45:00.703Z,100322.44
2018-04-14T19:47:28.099Z,100333.81
2018-04-14T19:49:55.480Z,100331.53
2018-04-14T19:52:22.875Z,100330.05
2018-04-14T19:54:50.266Z,100322.47
2018-04-14T19:57:17.662Z,100324.38
2018-04-14T19:59:45.094Z,100311.05
2018-04-14T20:02:12.739Z,100314.54
2018-04-14T20:04:40.128Z,100316.75
2018-04-14T20:07:07.525Z,100316.52
2018-04-14T20:09:34.906Z,100315.17
2018-04-14T20:12:02.292Z,100311.36
2018-04-14T20:14:29.684Z,100311.34
2018-04-14T20:16:57.077Z,100311.77
2018-04-14T20:19:24.467Z,100317.44
2018-04-14T20:21:51.858Z,100320.00
2018-04-14T20:24:19.252Z,100321.55
2018-04-14T20:26:46.647Z,100319.87
2018-04-14T20:29:14.032Z,100319.09
2018-04-14T20:31:41.432Z,100311.00
2018-04-14T20:34:08.818Z,100305.87
2018-04-14T20:36:36.221Z,100308.91
2018-04-14T20:39:03.613Z,100300.41
2018-04-14T20:41:31.439Z,100290.85
2018-04-14T20:43:58.839Z,100294.64
2018-04-14T20:46:26.226Z,100293.02
2018-04-14T20:48:53.623Z,100297.09
2018-04-14T20:51:21.007Z,100291.13
2018-04-14T20:53:48.394Z,100282.59
2018-04-14T20:56:15.782Z,100279.53
2018-04-14T20:58:43.180Z,100274.87
2018-04-14T21:01:10.563Z,100283.27
2018-04-14T21:03:37.947Z,100283.30
2018-04-14T21:06:05.401Z,100284.46
2018-04-14T21:08:32.804Z,100276.83
2018-04-14T21:11:00.198Z,100280.20
2018-04-14T21:13:27.587Z,100274.58
2018-04-14T21:15:55.238Z,100275.13
2018-04-14T21:18:22.627Z,100276.00
2018-04-14T21:20:50.027Z,100277.95
2018-04-14T21:23:17.411Z,100273.64
2018-04-14T21:25:44.801Z,100273.05
2018-04-14T21:28:12.195Z,100271.26
2018-04-14T21:30:39.584Z,100274.38
2018-04-14T21:33:06.982Z,100279.84
2018-04-14T21:35:34.371Z,100269.60
2018-04-14T21:38:01.782Z,100269.61
2018-04-14T21:40:29.170Z,100265.80
2018-04-14T21:42:56.559Z,100269.75
2018-04-14T21:45:23.948Z,100266.88
2018-04-14T21:47:51.336Z,100262.38
2018-04-14T21:50:18.726Z,100261.01
2018-04-14T21:52:46.110Z,100256.30
2018-04-14T21:55:13.503Z,100259.23
2018-04-14T21:57:40.894Z,100255.06
2018-04-14T22:00:08.292Z,100253.05
2018-04-14T22:02:35.680Z,100247.59
2018-04-14T22:05:03.070Z,100250.28
2018-04-14T22:07:30.454Z,100247.64
2018-04-14T22:09:57.851Z,100247.53
2018-04-14T22:12:25.487Z,100251.52
2018-04-14T22:14:53.227Z,100251.56
2018-04-14T22:17:20.627Z,100254.34
2018-04-14T22:19:48.020Z,100253.08
2018-04-14T22:22:15.426Z,100252.68
2018-04-14T22:24:42.811Z,100253.41
2018-04-14T22:27:10.210Z,100252.41
2018-04-14T22:29:37.602Z,100251.92
2018-04-14T22:32:05.183Z,100243.49
2018-04-14T22:34:32.566Z,100246.87
2018-04-14T22:36:59.958Z,100240.94
2018-04-14T22:39:27.371Z,100242.38
2018-04-14T22:41:54.743Z,100249.52
2018-04-14T22:44:22.151Z,100246.65
2018-04-14T22:46:49.543Z,100244.34
2018-04-14T22:49:16.939Z,100249.38
2018-04-14T22:51:44.336Z,100257.66
2018-04-14T22:54:11.723Z,100255.80
2018-04-14T22:56:39.118Z,100260.03
2018-04-14T22:59:06.507Z,100262.95
2018-04-14T23:01:33.898Z,100267.81
2018-04-14T23:04:01.287Z,100280.77
2018-04-14T23:06:28.687Z,100284.29
2018-04-14T23:08:56.081Z,100292.59
2018-04-14T23:11:23.471Z,100289.62
2018-04-14T23:13:50.867Z,100293.64
2018-04-14T23:16:18.259Z,100304.31
2018-04-14T23:18:45.647Z,100307.38
2018-04-14T23:21:13.035Z,100302.45
2018-04-14T23:23:40.432Z,100307.50
2018-04-14T23:26:08.008Z,100314.50
2018-04-14T23:28:35.675Z,100305.73
2018-04-14T23:31:03.058Z,100309.05
2018-04-14T23:33:30.443Z,100313.94
2018-04-14T23:35:57.838Z,100309.89
2018-04-14T23:38:25.223Z,100309.91
2018-04-14T23:40:52.632Z,100309.12
2018-04-14T23:43:20.019Z,100300.63
2018-04-14T23:45:47.436Z,100308.20
2018-04-14T23:48:14.838Z,100301.78
2018-04-14T23:50:42.227Z,100296.27
2018-04-14T23:58:51.383Z,100298.59
